createdAt,value
2019-05-02T00:00:09.296Z,0.0000
2019-05-02T00:01:12.304Z,0.0000
2019-05-02T00:02:15.338Z,0.0000
2019-05-02T00:03:18.310Z,0.0000
2019-05-02T00:04:21.359Z,0.0000
2019-05-02T00:05:27.393Z,0.0000
2019-05-02T00:06:32.280Z,0.0000
2019-05-02T00:07:34.372Z,0.0000
2019-05-02T00:08:37.281Z,0.0000
2019-05-02T00:09:47.367Z,0.0000
2019-05-02T00:10:48.332Z,0.0000
2019-05-02T00:11:58.609Z,0.0000
2019-05-02T00:12:59.374Z,0.0000
2019-05-02T00:14:04.279Z,0.0000
2019-05-02T00:15:07.298Z,0.0000
2019-05-02T00:16:14.025Z,0.0000
2019-05-02T00:17:20.435Z,0.0000
2019-05-02T00:18:26.333Z,0.0000
2019-05-02T00:19:29.292Z,0.0000
2019-05-02T00:20:31.291Z,0.0000
2019-05-02T00:21:38.275Z,0.0000
2019-05-02T00:22:42.300Z,0.0000
2019-05-02T00:23:45.315Z,0.0000
2019-05-02T00:24:48.299Z,0.0000
2019-05-02T00:25:52.681Z,0.0000
2019-05-02T00:27:01.368Z,0.0000
2019-05-02T00:28:07.795Z,0.0000
2019-05-02T00:29:13.340Z,0.0000
2019-05-02T00:30:16.312Z,0.0000
2019-05-02T00:31:19.289Z,0.0000
2019-05-02T00:32:23.621Z,0.0000
2019-05-02T00:33:29.139Z,0.0000
2019-05-02T00:34:34.314Z,0.0000
2019-05-02T00:35:40.887Z,0.0000
2019-05-02T00:36:45.286Z,0.0000
2019-05-02T00:37:48.282Z,0.0000
2019-05-02T00:38:51.325Z,0.0000
2019-05-02T00:39:54.289Z,0.0000
2019-05-02T00:41:01.731Z,0.0000
2019-05-02T00:42:12.339Z,0.0000
2019-05-02T00:43:13.294Z,0.0000
2019-05-02T00:44:16.299Z,0.0000
2019-05-02T00:45:23.945Z,0.0000
2019-05-02T00:46:30.355Z,0.0000
2019-05-02T00:47:35.336Z,0.0000
2019-05-02T00:48:38.297Z,0.0000
2019-05-02T00:49:41.343Z,0.0000
2019-05-02T00:50:45.264Z,0.0000
2019-05-02T00:51:52.289Z,0.0000
2019-05-02T00:52:55.304Z,0.0000
2019-05-02T00:53:58.292Z,0.0000
2019-05-02T00:55:01.345Z,0.0000
2019-05-02T00:56:05.137Z,0.0000
2019-05-02T00:57:14.954Z,0.0000
2019-05-02T00:58:19.265Z,0.0000
2019-05-02T00:59:22.284Z,0.0000
2019-05-02T01:00:25.323Z,0.0000
2019-05-02T01:01:29.724Z,0.0000
2019-05-02T01:02:35.843Z,0.0000
2019-05-02T01:03:42.270Z,0.0000
2019-05-02T01:04:45.327Z,0.0000
2019-05-02T01:05:48.307Z,0.0000
2019-05-02T01:06:51.361Z,0.0000
2019-05-02T01:07:56.141Z,0.0000
2019-05-02T01:09:05.860Z,0.0000
2019-05-02T01:10:10.286Z,0.0000
2019-05-02T01:11:13.290Z,0.0000
2019-05-02T01:12:26.117Z,0.0000
2019-05-02T01:13:24.333Z,0.0000
2019-05-02T01:14:31.643Z,0.0000
2019-05-02T01:15:39.028Z,0.0000
2019-05-02T01:16:43.278Z,0.0000
2019-05-02T01:17:46.315Z,0.0000
2019-05-02T01:18:49.330Z,0.0000
2019-05-02T01:19:52.743Z,0.0000
2019-05-02T01:20:58.126Z,0.0000
2019-05-02T01:22:03.277Z,0.0000
2019-05-02T01:23:06.325Z,0.0000
2019-05-02T01:24:09.288Z,0.0000
2019-05-02T01:25:15.730Z,0.0000
2019-05-02T01:26:24.280Z,0.0000
2019-05-02T01:27:28.302Z,0.0000
2019-05-02T01:28:31.329Z,0.0000
2019-05-02T01:29:34.316Z,0.0000
2019-05-02T01:30:42.239Z,0.0000
2019-05-02T01:31:45.290Z,0.0000
2019-05-02T01:32:48.306Z,0.0000
2019-05-02T01:33:51.302Z,0.0000
2019-05-02T01:34:56.214Z,0.0000
2019-05-02T01:36:01.635Z,0.0000
2019-05-02T01:37:07.299Z,0.0000
2019-05-02T01:38:10.301Z,0.0000
2019-05-02T01:39:13.335Z,0.0000
2019-05-02T01:40:17.685Z,0.0000
2019-05-02T01:41:24.063Z,0.0000
2019-05-02T01:42:39.571Z,0.0000
2019-05-02T01:43:38.281Z,0.0000
2019-05-02T01:44:41.334Z,0.0000
2019-05-02T01:45:46.587Z,0.0000
2019-05-02T01:46:49.315Z,0.0000
2019-05-02T01:47:51.282Z,0.0000
2019-05-02T01:48:54.288Z,0.0000
2019-05-02T01:49:59.145Z,0.0000
2019-05-02T01:51:04.345Z,0.0000
2019-05-02T01:52:10.292Z,0.0000
2019-05-02T01:53:13.293Z,0.0000
2019-05-02T01:54:16.274Z,0.0000
2019-05-02T01:55:21.184Z,0.0000
2019-05-02T01:56:28.437Z,0.0000
2019-05-02T01:57:33.283Z,0.0000
2019-05-02T01:58:35.303Z,0.0000
2019-05-02T01:59:38.272Z,0.0000
2019-05-02T02:00:44.753Z,0.0000
2019-05-02T02:01:53.119Z,0.0000
2019-05-02T02:02:57.319Z,0.0000
2019-05-02T02:04:00.279Z,0.0000
2019-05-02T02:05:03.318Z,0.0000
2019-05-02T02:06:08.143Z,0.0000
2019-05-02T02:07:15.075Z,0.0000
2019-05-02T02:08:21.326Z,0.0000
2019-05-02T02:09:24.313Z,0.0000
2019-05-02T02:10:27.314Z,0.0000
2019-05-02T02:11:33.898Z,0.0000
2019-05-02T02:12:41.252Z,0.0000
2019-05-02T02:13:46.284Z,0.0000
2019-05-02T02:14:53.372Z,0.0000
2019-05-02T02:16:00.147Z,0.0000
2019-05-02T02:17:05.306Z,0.0000
2019-05-02T02:18:08.267Z,0.0000
2019-05-02T02:19:11.305Z,0.0000
2019-05-02T02:20:14.130Z,0.0000
2019-05-02T02:21:20.172Z,0.0000
2019-05-02T02:22:26.291Z,0.0000
2019-05-02T02:23:29.286Z,0.0000
2019-05-02T02:24:32.298Z,0.0000
2019-05-02T02:25:36.329Z,0.0000
2019-05-02T02:26:43.556Z,0.0000
2019-05-02T02:27:50.252Z,0.0000
2019-05-02T02:28:53.320Z,0.0000
2019-05-02T02:29:56.286Z,0.0000
2019-05-02T02:31:04.968Z,0.0000
2019-05-02T02:32:07.312Z,0.0000
2019-05-02T02:33:10.306Z,0.0000
2019-05-02T02:34:13.281Z,0.0000
2019-05-02T02:35:16.298Z,0.0000
2019-05-02T02:36:29.948Z,0.0000
2019-05-02T02:37:27.294Z,0.0000
2019-05-02T02:38:33.662Z,0.0000
2019-05-02T02:39:38.271Z,0.0000
2019-05-02T02:40:40.289Z,0.0000
2019-05-02T02:41:45.380Z,0.0000
2019-05-02T02:42:50.330Z,0.0000
2019-05-02T02:43:54.824Z,0.0000
2019-05-02T02:45:01.326Z,0.0000
2019-05-02T02:46:04.301Z,0.0000
2019-05-02T02:47:12.117Z,0.0000
2019-05-02T02:48:15.337Z,0.0000
2019-05-02T02:49:21.248Z,0.0000
2019-05-02T02:50:26.308Z,0.0000
2019-05-02T02:51:29.281Z,0.0000
2019-05-02T02:52:37.941Z,0.0000
2019-05-02T02:53:40.297Z,0.0000
2019-05-02T02:54:44.931Z,0.0000
2019-05-02T02:55:48.273Z,0.0000
2019-05-02T02:56:51.332Z,0.0000
2019-05-02T02:57:58.469Z,0.0000
2019-05-02T02:59:02.334Z,0.0000
2019-05-02T03:00:07.639Z,0.0000
2019-05-02T03:01:27.372Z,0.0000
2019-05-02T03:02:23.297Z,0.0000
2019-05-02T03:03:27.931Z,0.0000
2019-05-02T03:04:33.322Z,0.0000
2019-05-02T03:05:36.322Z,0.0000
2019-05-02T03:06:45.070Z,0.0000
2019-05-02T03:07:47.298Z,0.0000
2019-05-02T03:08:50.302Z,0.0000
2019-05-02T03:09:53.270Z,0.0000
2019-05-02T03:10:56.322Z,0.0000
2019-05-02T03:12:02.042Z,0.0000
2019-05-02T03:13:07.319Z,0.0000
2019-05-02T03:14:10.283Z,0.0000
2019-05-02T03:15:13.292Z,0.0000
2019-05-02T03:16:16.332Z,0.0000
2019-05-02T03:17:25.802Z,0.0000
2019-05-02T03:18:27.365Z,0.0000
2019-05-02T03:19:30.285Z,0.0000
2019-05-02T03:20:40.113Z,0.0000
2019-05-02T03:21:41.287Z,0.0000
2019-05-02T03:22:43.561Z,0.0000
2019-05-02T03:23:46.289Z,0.0000
2019-05-02T03:24:49.336Z,0.0000
2019-05-02T03:25:52.326Z,0.0000
2019-05-02T03:26:57.851Z,0.0000
2019-05-02T03:28:01.307Z,0.0000
2019-05-02T03:29:04.280Z,0.0000
2019-05-02T03:30:07.332Z,0.0000
2019-05-02T03:31:24.246Z,0.0000
2019-05-02T03:32:32.172Z,0.0000
2019-05-02T03:33:26.285Z,0.0000
2019-05-02T03:34:44.957Z,0.0000
2019-05-02T03:35:43.923Z,0.0000
2019-05-02T03:36:45.335Z,0.0000
2019-05-02T03:37:51.485Z,0.0000
2019-05-02T03:38:56.305Z,0.0000
2019-05-02T03:40:00.595Z,0.0000
2019-05-02T03:41:04.293Z,0.0000
2019-05-02T03:42:07.345Z,0.0000
2019-05-02T03:43:10.297Z,0.0000
2019-05-02T03:44:24.596Z,0.0000
2019-05-02T03:45:21.279Z,0.0000
2019-05-02T03:46:24.320Z,0.0000
2019-05-02T03:47:27.325Z,0.0000
2019-05-02T03:48:30.295Z,0.0000
2019-05-02T03:49:33.277Z,0.0000
2019-05-02T03:50:36.291Z,0.0000
2019-05-02T03:51:39.329Z,0.0000
2019-05-02T03:52:44.495Z,0.0000
2019-05-02T03:53:49.332Z,0.0000
2019-05-02T03:54:52.704Z,0.0000
2019-05-02T03:55:56.287Z,0.0000
2019-05-02T03:56:59.269Z,0.0000
2019-05-02T03:58:13.335Z,0.0000
2019-05-02T03:59:10.279Z,0.0000
2019-05-02T04:00:20.756Z,0.0000
2019-05-02T04:01:21.279Z,0.0000
2019-05-02T04:02:24.332Z,0.0000
2019-05-02T04:03:27.324Z,0.0000
2019-05-02T04:04:30.299Z,0.0000
2019-05-02T04:05:33.855Z,0.0000
2019-05-02T04:06:41.288Z,0.0000
2019-05-02T04:07:44.311Z,0.0000
2019-05-02T04:08:47.285Z,0.0000
2019-05-02T04:09:50.336Z,0.0000
2019-05-02T04:10:59.440Z,0.0000
2019-05-02T04:12:01.305Z,0.0000
2019-05-02T04:13:04.267Z,0.0000
2019-05-02T04:14:14.642Z,0.0000
2019-05-02T04:15:15.377Z,0.0000
2019-05-02T04:16:18.287Z,0.0000
2019-05-02T04:17:21.313Z,0.0000
2019-05-02T04:18:24.289Z,0.0000
2019-05-02T04:19:28.535Z,0.0000
2019-05-02T04:20:35.290Z,0.0000
2019-05-02T04:21:38.320Z,0.0000
2019-05-02T04:22:42.935Z,0.0000
2019-05-02T04:23:49.324Z,0.0000
2019-05-02T04:24:56.705Z,0.0000
2019-05-02T04:26:00.349Z,0.0000
2019-05-02T04:27:03.269Z,0.0000
2019-05-02T04:28:12.121Z,0.0000
2019-05-02T04:29:14.309Z,0.0000
2019-05-02T04:30:17.279Z,0.0000
2019-05-02T04:31:24.720Z,0.0000
2019-05-02T04:32:29.296Z,0.0000
2019-05-02T04:33:34.644Z,0.0000
2019-05-02T04:34:39.278Z,0.0000
2019-05-02T04:35:42.294Z,0.0000
2019-05-02T04:36:46.603Z,0.0000
2019-05-02T04:37:50.290Z,0.0000
2019-05-02T04:38:52.810Z,0.0000
2019-05-02T04:39:59.150Z,0.0000
2019-05-02T04:41:04.288Z,0.0000
2019-05-02T04:42:13.080Z,68.7225
2019-05-02T04:43:18.225Z,68.7158
2019-05-02T04:44:21.291Z,68.6518
2019-05-02T04:45:29.335Z,68.5891
2019-05-02T04:46:32.274Z,0.0000
2019-05-02T04:47:35.348Z,0.0000
2019-05-02T04:48:43.730Z,0.0000
2019-05-02T04:49:49.096Z,68.6709
2019-05-02T04:50:59.431Z,68.6175
2019-05-02T04:52:10.646Z,0.0000
2019-05-02T04:53:10.301Z,0.0000
2019-05-02T04:54:22.067Z,0.0000
2019-05-02T04:55:28.200Z,0.0000
2019-05-02T04:56:29.324Z,0.0000
2019-05-02T04:57:37.083Z,0.0000
2019-05-02T04:58:40.824Z,0.0000
2019-05-02T04:59:44.304Z,0.0000
2019-05-02T05:00:53.592Z,0.0000
2019-05-02T05:01:58.452Z,0.0000
2019-05-02T05:03:08.422Z,0.0000
2019-05-02T05:04:11.342Z,0.0000
2019-05-02T05:05:17.369Z,0.0000
2019-05-02T05:06:22.299Z,0.0000
2019-05-02T05:07:25.288Z,0.0000
2019-05-02T05:08:31.946Z,0.0000
2019-05-02T05:09:35.312Z,0.0000
2019-05-02T05:10:41.595Z,0.0000
2019-05-02T05:11:48.123Z,0.0000
2019-05-02T05:12:51.296Z,0.0000
2019-05-02T05:13:57.678Z,0.0000
2019-05-02T05:15:02.311Z,0.0000
2019-05-02T05:16:08.143Z,0.0000
2019-05-02T05:17:13.280Z,0.0000
2019-05-02T05:18:17.649Z,0.0000
2019-05-02T05:19:23.069Z,0.0000
2019-05-02T05:20:28.332Z,0.0000
2019-05-02T05:21:31.319Z,0.0000
2019-05-02T05:22:38.564Z,0.0000
2019-05-02T05:23:42.301Z,0.0000
2019-05-02T05:24:45.319Z,0.0000
2019-05-02T05:25:50.571Z,0.0000
2019-05-02T05:26:57.831Z,0.0000
2019-05-02T05:28:05.813Z,0.0000
2019-05-02T05:29:09.299Z,0.0000
2019-05-02T05:30:15.664Z,0.0000
2019-05-02T05:31:23.986Z,0.0000
2019-05-02T05:32:28.345Z,0.0000
2019-05-02T05:33:31.292Z,0.0000
2019-05-02T05:34:34.305Z,0.0000
2019-05-02T05:35:38.558Z,0.0000
2019-05-02T05:36:41.357Z,0.0000
2019-05-02T05:37:51.485Z,0.0000
2019-05-02T05:38:52.316Z,0.0000
2019-05-02T05:39:55.298Z,0.0000
2019-05-02T05:41:02.880Z,0.0000
2019-05-02T05:42:08.405Z,0.0000
2019-05-02T05:43:15.862Z,0.0000
2019-05-02T05:44:23.313Z,0.0000
2019-05-02T05:45:29.307Z,0.0000
2019-05-02T05:46:33.447Z,0.0000
2019-05-02T05:47:40.325Z,68.6909
2019-05-02T05:48:43.309Z,0.0000
2019-05-02T05:49:47.733Z,0.0000
2019-05-02T05:50:51.299Z,0.0000
2019-05-02T05:51:59.524Z,0.0000
2019-05-02T05:53:02.346Z,0.0000
2019-05-02T05:54:05.328Z,0.0000
2019-05-02T05:55:12.617Z,0.0000
2019-05-02T05:56:18.050Z,0.0000
2019-05-02T05:57:21.344Z,0.0000
2019-05-02T05:58:24.366Z,0.0000
2019-05-02T05:59:30.894Z,0.0000
2019-05-02T06:00:35.291Z,0.0000
2019-05-02T06:01:38.542Z,0.0000
2019-05-02T06:02:53.023Z,0.0000
2019-05-02T06:03:49.286Z,0.0000
2019-05-02T06:04:55.359Z,0.0000
2019-05-02T06:06:00.287Z,0.0000
2019-05-02T06:07:03.400Z,0.0000
2019-05-02T06:08:08.057Z,0.0000
2019-05-02T06:09:13.772Z,0.0000
2019-05-02T06:10:17.310Z,0.0000
2019-05-02T06:11:21.791Z,0.0000
2019-05-02T06:12:26.186Z,0.0000
2019-05-02T06:13:32.328Z,0.0000
2019-05-02T06:14:35.335Z,0.0000
2019-05-02T06:15:39.095Z,0.0000
2019-05-02T06:16:46.617Z,0.0000
2019-05-02T06:17:51.293Z,0.0000
2019-05-02T06:18:54.355Z,0.0000
2019-05-02T06:19:57.313Z,0.0000
2019-05-02T06:21:03.433Z,0.0000
2019-05-02T06:22:08.310Z,0.0000
2019-05-02T06:23:11.288Z,0.0000
2019-05-02T06:24:15.681Z,0.0000
2019-05-02T06:25:32.884Z,0.0000
2019-05-02T06:26:27.314Z,0.0000
2019-05-02T06:27:30.475Z,0.0000
2019-05-02T06:28:36.255Z,0.0000
2019-05-02T06:29:42.299Z,0.0000
2019-05-02T06:30:45.309Z,67.6141
2019-05-02T06:31:48.311Z,0.0000
2019-05-02T06:32:54.949Z,68.1059
2019-05-02T06:34:02.124Z,68.2533
2019-05-02T06:35:07.296Z,68.1993
2019-05-02T06:36:10.333Z,68.2309
2019-05-02T06:37:15.306Z,67.9583
2019-05-02T06:38:21.541Z,0.0000
2019-05-02T06:39:27.113Z,0.0000
2019-05-02T06:40:34.337Z,67.8334
2019-05-02T06:41:37.282Z,0.0000
2019-05-02T06:42:40.326Z,0.0000
2019-05-02T06:43:46.635Z,68.5558
2019-05-02T06:44:54.901Z,68.3425
2019-05-02T06:45:59.352Z,0.0000
2019-05-02T06:47:04.415Z,0.0000
2019-05-02T06:48:08.305Z,0.0000
2019-05-02T06:49:11.268Z,0.0000
2019-05-02T06:50:14.318Z,0.0000
2019-05-02T06:51:20.810Z,0.0000
2019-05-02T06:52:27.288Z,0.0000
2019-05-02T06:53:34.972Z,0.0000
2019-05-02T06:54:38.300Z,0.0000
2019-05-02T06:55:41.298Z,0.0000
2019-05-02T06:56:47.848Z,0.0000
2019-05-02T06:57:57.014Z,0.0000
2019-05-02T06:59:00.308Z,0.0000
2019-05-02T07:00:03.313Z,0.0000
2019-05-02T07:01:06.345Z,68.3209
2019-05-02T07:02:09.347Z,68.5975
2019-05-02T07:03:12.262Z,68.7667
2019-05-02T07:04:17.541Z,0.0000
2019-05-02T07:05:27.221Z,0.0000
2019-05-02T07:06:34.818Z,0.0000
2019-05-02T07:07:38.399Z,68.7075
2019-05-02T07:08:41.333Z,68.9291
2019-05-02T07:09:44.317Z,0.0000
2019-05-02T07:10:47.315Z,69.0492
2019-05-02T07:11:56.932Z,69.0118
2019-05-02T07:13:10.117Z,69.2710
2019-05-02T07:14:12.876Z,69.4059
2019-05-02T07:15:14.339Z,0.0000
2019-05-02T07:16:37.288Z,0.0000
2019-05-02T07:17:26.575Z,0.0000
2019-05-02T07:18:33.351Z,0.0000
2019-05-02T07:19:36.304Z,0.0000
2019-05-02T07:20:40.644Z,0.0000
2019-05-02T07:21:45.308Z,0.0000
2019-05-02T07:22:48.288Z,69.4884
2019-05-02T07:23:53.785Z,0.0000
2019-05-02T07:25:01.870Z,69.3677
2019-05-02T07:26:06.306Z,69.3193
2019-05-02T07:27:09.330Z,69.3063
2019-05-02T07:28:11.297Z,69.2333
2019-05-02T07:29:17.016Z,69.3743
2019-05-02T07:30:22.302Z,0.0000
2019-05-02T07:31:25.311Z,69.3767
2019-05-02T07:32:28.309Z,0.0000
2019-05-02T07:33:32.416Z,0.0000
2019-05-02T07:34:39.372Z,0.0000
2019-05-02T07:35:42.331Z,0.0000
2019-05-02T07:36:45.316Z,69.6958
2019-05-02T07:37:48.824Z,0.0000
2019-05-02T07:38:57.528Z,69.5325
2019-05-02T07:40:01.320Z,69.6132
2019-05-02T07:41:04.325Z,69.7052
2019-05-02T07:42:07.883Z,69.6866
2019-05-02T07:43:13.536Z,69.5460
2019-05-02T07:44:19.292Z,69.6659
2019-05-02T07:45:22.318Z,69.7892
2019-05-02T07:46:25.387Z,69.7716
2019-05-02T07:47:28.938Z,69.7050
2019-05-02T07:48:33.394Z,69.7675
2019-05-02T07:49:36.275Z,63.1490
2019-05-02T07:50:41.168Z,60.5177
2019-05-02T07:51:47.309Z,60.7836
2019-05-02T07:52:50.351Z,60.8726
2019-05-02T07:53:55.513Z,60.8284
2019-05-02T07:55:01.115Z,60.7492
2019-05-02T07:56:05.329Z,60.7670
2019-05-02T07:57:08.311Z,60.7851
2019-05-02T07:58:11.322Z,60.8126
2019-05-02T07:59:13.288Z,66.1302
2019-05-02T08:00:16.310Z,73.4341
2019-05-02T08:01:19.295Z,73.3424
2019-05-02T08:02:25.046Z,73.3365
2019-05-02T08:03:33.294Z,0.0000
2019-05-02T08:04:37.322Z,73.3865
2019-05-02T08:05:40.320Z,73.3113
2019-05-02T08:06:44.624Z,73.1863
2019-05-02T08:07:53.362Z,73.2707
2019-05-02T08:09:01.608Z,73.3297
2019-05-02T08:10:05.314Z,84.4972
2019-05-02T08:11:08.308Z,85.5309
2019-05-02T08:12:11.315Z,73.1076
2019-05-02T08:13:17.585Z,66.8643
2019-05-02T08:14:22.329Z,66.9034
2019-05-02T08:15:25.293Z,0.0000
2019-05-02T08:16:28.602Z,0.0000
2019-05-02T08:17:32.374Z,0.0000
2019-05-02T08:18:35.330Z,0.0000
2019-05-02T08:19:41.669Z,66.8684
2019-05-02T08:20:46.303Z,66.8632
2019-05-02T08:21:49.311Z,0.0000
2019-05-02T08:22:52.296Z,66.8522
2019-05-02T08:23:57.227Z,0.0000
2019-05-02T08:25:03.284Z,0.0000
2019-05-02T08:26:06.352Z,66.9286
2019-05-02T08:27:09.304Z,2.7766
2019-05-02T08:28:15.814Z,19.1774
2019-05-02T08:29:23.441Z,24.2616
2019-05-02T08:30:28.311Z,23.1683
2019-05-02T08:31:31.320Z,11.7976
2019-05-02T08:32:34.312Z,16.8540
2019-05-02T08:33:38.382Z,0.0000
2019-05-02T08:34:41.316Z,0.0000
2019-05-02T08:35:44.337Z,0.0000
2019-05-02T08:36:47.290Z,0.0000
2019-05-02T08:37:50.309Z,16.8108
2019-05-02T08:38:54.056Z,0.0000
2019-05-02T08:39:58.363Z,16.7517
2019-05-02T08:41:01.311Z,0.0000
2019-05-02T08:42:04.305Z,0.0000
2019-05-02T08:43:09.290Z,0.0000
2019-05-02T08:44:16.694Z,16.8807
2019-05-02T08:45:20.329Z,0.0000
2019-05-02T08:46:23.322Z,0.0000
2019-05-02T08:47:28.685Z,0.0000
2019-05-02T08:48:36.556Z,16.8176
2019-05-02T08:49:42.589Z,16.8824
2019-05-02T08:50:44.387Z,16.9924
2019-05-02T08:51:47.335Z,25.5403
2019-05-02T08:52:50.275Z,31.4057
2019-05-02T08:53:56.726Z,34.5846
2019-05-02T08:55:04.395Z,31.7217
2019-05-02T08:56:09.349Z,32.2934
2019-05-02T08:57:12.385Z,29.8417
2019-05-02T08:58:15.975Z,270.2946
2019-05-02T08:59:19.724Z,46.2805
2019-05-02T09:00:23.292Z,45.5574
2019-05-02T09:01:34.823Z,44.1696
2019-05-02T09:02:41.148Z,43.5100
2019-05-02T09:03:54.629Z,43.5175
2019-05-02T09:04:58.343Z,43.4640
2019-05-02T09:06:05.685Z,42.2558
2019-05-02T09:07:06.387Z,37.8417
2019-05-02T09:08:14.171Z,39.1682
2019-05-02T09:09:17.309Z,47.2015
2019-05-02T09:10:20.308Z,44.0259
2019-05-02T09:11:23.339Z,42.7767
2019-05-02T09:12:26.346Z,43.1867
2019-05-02T09:13:29.674Z,44.3473
2019-05-02T09:14:33.305Z,72.2465
2019-05-02T09:15:40.383Z,41.1433
2019-05-02T09:16:44.286Z,62.7879
2019-05-02T09:17:54.422Z,56.9518
2019-05-02T09:18:55.394Z,56.1944
2019-05-02T09:20:02.278Z,56.3211
2019-05-02T09:21:06.322Z,52.0110
2019-05-02T09:22:13.313Z,72.7362
2019-05-02T09:23:17.302Z,78.1838
2019-05-02T09:24:23.275Z,35.2599
2019-05-02T09:25:27.328Z,56.5579
2019-05-02T09:26:36.021Z,45.7392
2019-05-02T09:27:38.334Z,56.4133
2019-05-02T09:28:42.230Z,54.2750
2019-05-02T09:29:45.994Z,48.3400
2019-05-02T09:30:49.296Z,53.4810
2019-05-02T09:31:52.661Z,53.4451
2019-05-02T09:32:57.098Z,53.3893
2019-05-02T09:34:04.326Z,53.3409
2019-05-02T09:35:09.357Z,53.2768
2019-05-02T09:36:12.358Z,33.4544
2019-05-02T09:37:15.329Z,37.8920
2019-05-02T09:38:17.305Z,48.9068
2019-05-02T09:39:22.501Z,0.0000
2019-05-02T09:40:25.355Z,48.9641
2019-05-02T09:41:34.423Z,47.9066
2019-05-02T09:42:36.299Z,52.2475
2019-05-02T09:43:39.375Z,52.3675
2019-05-02T09:44:42.613Z,52.8317
2019-05-02T09:45:45.309Z,48.8455
2019-05-02T09:46:53.014Z,48.7933
2019-05-02T09:48:03.986Z,0.0000
2019-05-02T09:49:10.656Z,46.0396
2019-05-02T09:50:12.846Z,36.7512
2019-05-02T09:51:17.383Z,30.7824
2019-05-02T09:52:22.136Z,40.9435
2019-05-02T09:53:25.632Z,47.7026
2019-05-02T09:54:29.290Z,47.8917
2019-05-02T09:55:32.287Z,44.0654
2019-05-02T09:56:35.301Z,44.0831
2019-05-02T09:57:38.322Z,49.3006
2019-05-02T09:58:42.000Z,43.8475
2019-05-02T09:59:50.624Z,42.1133
2019-05-02T10:00:53.342Z,42.1041
2019-05-02T10:01:56.304Z,40.3871
2019-05-02T10:02:59.348Z,51.5197
2019-05-02T10:04:02.447Z,55.7829
2019-05-02T10:05:05.346Z,59.3666
2019-05-02T10:06:12.653Z,52.1361
2019-05-02T10:07:16.384Z,39.5276
2019-05-02T10:08:19.334Z,39.9667
2019-05-02T10:09:25.719Z,67.2744
2019-05-02T10:10:32.220Z,60.1188
2019-05-02T10:11:35.335Z,55.2479
2019-05-02T10:12:38.363Z,50.9190
2019-05-02T10:13:42.422Z,47.2178
2019-05-02T10:14:46.340Z,43.7892
2019-05-02T10:15:49.324Z,43.6690
2019-05-02T10:16:52.935Z,43.6790
2019-05-02T10:18:07.937Z,0.0000
2019-05-02T10:19:09.434Z,43.5816
2019-05-02T10:20:13.320Z,0.0000
2019-05-02T10:21:17.218Z,0.0000
2019-05-02T10:22:20.345Z,0.0000
2019-05-02T10:23:23.582Z,51.4505
2019-05-02T10:24:27.307Z,67.0476
2019-05-02T10:25:38.326Z,65.0863
2019-05-02T10:26:38.311Z,48.9273
2019-05-02T10:27:46.068Z,45.7248
2019-05-02T10:28:50.751Z,44.1226
2019-05-02T10:29:57.253Z,48.9120
2019-05-02T10:31:02.077Z,48.2306
2019-05-02T10:32:07.657Z,35.3139
2019-05-02T10:33:12.379Z,35.1066
2019-05-02T10:34:17.663Z,34.9107
2019-05-02T10:35:22.903Z,39.5440
2019-05-02T10:36:26.309Z,66.4278
2019-05-02T10:37:30.619Z,58.7345
2019-05-02T10:38:37.296Z,58.6540
2019-05-02T10:39:42.230Z,58.6287
2019-05-02T10:40:48.429Z,47.1791
2019-05-02T10:41:53.315Z,54.8894
2019-05-02T10:42:56.331Z,29.1586
2019-05-02T10:43:59.668Z,70.4189
2019-05-02T10:45:07.483Z,49.3250
2019-05-02T10:46:12.597Z,48.5018
2019-05-02T10:47:15.298Z,46.8160
2019-05-02T10:48:27.459Z,39.9671
2019-05-02T10:49:26.309Z,41.8078
2019-05-02T10:50:28.369Z,40.7542
2019-05-02T10:51:31.691Z,46.7444
2019-05-02T10:52:35.318Z,46.6557
2019-05-02T10:53:38.273Z,45.2072
2019-05-02T10:54:42.178Z,41.3090
2019-05-02T10:55:45.321Z,39.5743
2019-05-02T10:56:48.323Z,35.4323
2019-05-02T10:57:52.698Z,35.5465
2019-05-02T10:58:56.329Z,35.5715
2019-05-02T10:59:59.318Z,35.3467
2019-05-02T11:01:02.365Z,35.2474
2019-05-02T11:02:05.301Z,39.8127
2019-05-02T11:03:08.310Z,35.0300
2019-05-02T11:04:12.865Z,49.8266
2019-05-02T11:05:16.970Z,49.4376
2019-05-02T11:06:24.356Z,54.7460
2019-05-02T11:07:27.312Z,54.9750
2019-05-02T11:08:31.941Z,54.8022
2019-05-02T11:09:35.282Z,37.5609
2019-05-02T11:10:38.330Z,31.4158
2019-05-02T11:11:42.374Z,31.4690
2019-05-02T11:12:47.015Z,48.5591
2019-05-02T11:13:53.422Z,63.3087
2019-05-02T11:14:58.320Z,33.5600
2019-05-02T11:16:01.684Z,44.1717
2019-05-02T11:17:09.087Z,47.5401
2019-05-02T11:18:13.341Z,47.8735
2019-05-02T11:19:16.281Z,277.4260
2019-05-02T11:20:19.302Z,47.3150
2019-05-02T11:21:22.937Z,44.0582
2019-05-02T11:22:26.329Z,47.0204
2019-05-02T11:23:29.371Z,43.9191
2019-05-02T11:24:32.327Z,42.1766
2019-05-02T11:25:35.295Z,42.3116
2019-05-02T11:26:38.315Z,35.8223
2019-05-02T11:27:41.894Z,45.5552
2019-05-02T11:28:44.317Z,39.8403
2019-05-02T11:29:47.323Z,32.0024
2019-05-02T11:30:52.307Z,38.5177
2019-05-02T11:31:55.294Z,42.0631
2019-05-02T11:32:58.352Z,44.9238
2019-05-02T11:34:01.932Z,53.2029
2019-05-02T11:35:05.283Z,44.4624
2019-05-02T11:36:08.321Z,38.9927
2019-05-02T11:37:12.054Z,42.8208
2019-05-02T11:38:15.840Z,37.1121
2019-05-02T11:39:27.180Z,41.9624
2019-05-02T11:40:27.312Z,42.1009
2019-05-02T11:41:31.797Z,42.0207
2019-05-02T11:42:35.291Z,42.0642
2019-05-02T11:43:41.414Z,0.0000
2019-05-02T11:44:45.337Z,43.4931
2019-05-02T11:45:48.322Z,32.1597
2019-05-02T11:46:52.089Z,338.0634
2019-05-02T11:47:56.102Z,338.1333
2019-05-02T11:49:03.355Z,341.6107
2019-05-02T11:50:06.337Z,20.5373
2019-05-02T11:51:14.884Z,22.2725
2019-05-02T11:52:17.316Z,22.1808
2019-05-02T11:53:27.000Z,42.8936
2019-05-02T11:54:29.352Z,288.0482
2019-05-02T11:55:32.330Z,287.6306
2019-05-02T11:56:35.315Z,274.9393
2019-05-02T11:57:37.315Z,88.1258
2019-05-02T11:58:47.863Z,61.4906
2019-05-02T11:59:48.367Z,50.3880
2019-05-02T12:00:52.288Z,44.6990
2019-05-02T12:01:59.437Z,44.6173
2019-05-02T12:03:03.308Z,0.0000
2019-05-02T12:04:11.711Z,44.5924
2019-05-02T12:05:14.320Z,45.4043
2019-05-02T12:06:19.617Z,66.2267
2019-05-02T12:07:23.324Z,62.0173
2019-05-02T12:08:26.318Z,54.9576
2019-05-02T12:09:29.298Z,59.6158
2019-05-02T12:10:36.524Z,61.4642
2019-05-02T12:11:41.820Z,61.2868
2019-05-02T12:12:45.319Z,57.3087
2019-05-02T12:13:52.909Z,49.0967
2019-05-02T12:14:58.318Z,45.6913
2019-05-02T12:16:02.693Z,44.2998
2019-05-02T12:17:05.393Z,44.1256
2019-05-02T12:18:08.291Z,42.8042
2019-05-02T12:19:14.351Z,39.0440
2019-05-02T12:20:18.335Z,44.5211
2019-05-02T12:21:22.895Z,42.0435
2019-05-02T12:22:26.307Z,44.4791
2019-05-02T12:23:29.313Z,34.8314
2019-05-02T12:24:31.873Z,40.7268
2019-05-02T12:25:35.325Z,39.3807
2019-05-02T12:26:38.331Z,44.8528
2019-05-02T12:27:42.463Z,62.6398
2019-05-02T12:28:45.288Z,56.1771
2019-05-02T12:29:57.857Z,39.2736
2019-05-02T12:30:58.297Z,32.5185
2019-05-02T12:32:02.598Z,44.2271
2019-05-02T12:33:06.312Z,54.5951
2019-05-02T12:34:09.277Z,26.8540
2019-05-02T12:35:12.318Z,41.3818
2019-05-02T12:36:15.280Z,34.8602
2019-05-02T12:37:18.379Z,31.6778
2019-05-02T12:38:23.081Z,44.9376
2019-05-02T12:39:26.322Z,33.8421
2019-05-02T12:40:29.325Z,45.3195
2019-05-02T12:41:33.082Z,47.1345
2019-05-02T12:42:36.342Z,39.9623
2019-05-02T12:43:39.318Z,53.4495
2019-05-02T12:44:42.700Z,40.5100
2019-05-02T12:45:45.326Z,16.3941
2019-05-02T12:46:48.323Z,38.4636
2019-05-02T12:47:52.304Z,35.7556
2019-05-02T12:48:55.294Z,39.1503
2019-05-02T12:49:58.344Z,48.2377
2019-05-02T12:51:01.997Z,30.9749
2019-05-02T12:52:05.339Z,35.2131
2019-05-02T12:53:08.317Z,31.7218
2019-05-02T12:54:12.370Z,42.7313
2019-05-02T12:55:15.277Z,35.7141
2019-05-02T12:56:18.304Z,41.3244
2019-05-02T12:57:21.978Z,30.9511
2019-05-02T12:58:25.341Z,33.3714
2019-05-02T12:59:28.300Z,33.2240
2019-05-02T13:00:31.988Z,32.9738
2019-05-02T13:01:35.334Z,24.3848
2019-05-02T13:02:38.276Z,32.9005
2019-05-02T13:03:43.481Z,34.7706
2019-05-02T13:04:46.372Z,46.4494
2019-05-02T13:05:49.321Z,35.6638
2019-05-02T13:06:53.070Z,34.7704
2019-05-02T13:07:56.312Z,61.8806
2019-05-02T13:08:59.355Z,1.6036
2019-05-02T13:10:02.552Z,36.2459
2019-05-02T13:11:06.741Z,47.3393
2019-05-02T13:12:10.314Z,37.9083
2019-05-02T13:13:16.110Z,32.4857
2019-05-02T13:14:19.856Z,17.6375